aviador You're here:

FALE Decoded Metar

KING SHAKA INT ARPT in SOUTH AFRICA
Report Time2017-10-22 06:00:00
UTC Time2017-10-22 06:35:43
Flight Rules vfr VFR
Wind010° at 09 kt
W.Decomp.*RWY 06: 8.1 kt HW 3.9 kt LCW
W.Rank010° ranks 15
Current wind is above 010° avg. (5.5)
Visibility9999 m
Phenomena:N/A
Clouds:Few 030 Hf
Expected CloudBase > 4,000 ft AGL from Temp-Dew spread
CeilingNone
Temp22°C (ISA +8)
Dew Point12°C (53% RH)
AAT19.4°C
QNH1022 hPa
Density Alt1,066 ft
Elevation295 ft
Report Wrong Elevation
Raw Report
METAR FALE 220600Z 01009KT 340V040 9999 FEW030 22/12 Q1022 NOSIG=

Extra information for FALE:More info

Metar Taf Metar & Taf Last 4 Metars F.Rules Stats Wind Profile Meteogram Temp Stats Airport Information Weather charts Add Link Nearby VenuesMetar ALERT Operation Metar Decoded Social comments